Time;durP1;ratioP1;P1;durP2;ratioP2;P2;SDS_P1;SDS_P2;PMS_P1;PMS_P2;Temp;Humidity;BMP_temperature;BMP_pressure;BME280_temperature;BME280_humidity;BME280_pressure;Samples;Min_cycle;Max_cycle;Signal;HPM_P1;HPM_P2
2022/09/14 00:01:27;;;;;;;12.88;7.22;;;;;;;15.14;60.52;95144.03;5050999;28;20063;-88
2022/09/14 00:04:14;;;;;;;9.95;6.53;;;;;;;15.52;60.62;95199.81;5047649;28;20044;-88
2022/09/14 00:06:40;;;;;;;11.30;7.05;;;;;;;15.06;60.65;95132.19;5045576;28;20087;-89
2022/09/14 00:09:06;;;;;;;13.43;7.75;;;;;;;12.59;61.41;94794.25;5047247;28;20459;-88
2022/09/14 00:11:34;;;;;;;14.88;6.95;;;;;;;15.14;61.93;95202.81;5046200;28;20041;-88
2022/09/14 00:14:01;;;;;;;15.13;7.28;;;;;;;12.27;61.89;94761.38;5046159;28;20036;-88
2022/09/14 00:16:33;;;;;;;11.18;7.22;;;;;;;13.00;62.56;94909.53;5063119;28;20036;-88
2022/09/14 00:19:04;;;;;;;13.43;8.40;;;;;;;14.05;61.96;95043.63;5045452;28;20075;-89
2022/09/14 00:21:32;;;;;;;10.55;7.07;;;;;;;14.66;63.02;95189.16;5062213;28;20044;-88
2022/09/14 00:23:58;;;;;;;16.75;6.82;;;;;;;14.82;62.57;95205.63;5046212;28;20507;-88
2022/09/14 00:26:24;;;;;;;9.30;7.05;;;;;;;15.02;62.05;95206.03;5045719;28;20045;-88
2022/09/14 00:28:56;;;;;;;14.73;6.90;;;;;;;13.98;62.27;95069.13;5046070;28;20070;-88
2022/09/14 00:31:23;;;;;;;13.13;7.72;;;;;;;14.99;61.72;95205.81;5061747;28;20076;-88
2022/09/14 00:33:50;;;;;;;13.02;7.28;;;;;;;14.98;62.01;95204.22;5044995;28;20079;-88
2022/09/14 00:36:22;;;;;;;11.15;7.75;;;;;;;14.99;62.01;95197.81;5061956;28;20059;-88
2022/09/14 00:38:49;;;;;;;12.52;7.30;;;;;;;14.95;61.99;95194.94;5064453;28;20047;-88
2022/09/14 00:41:17;;;;;;;16.30;7.60;;;;;;;12.03;61.83;94771.34;5044479;28;20037;-88
2022/09/14 00:44:00;;;;;;;11.25;7.75;;;;;;;14.89;61.90;95206.81;5061548;28;20047;-88
2022/09/14 00:46:31;;;;;;;9.57;7.53;;;;;;;12.77;61.98;94897.16;5061315;28;20056;-89
2022/09/14 00:48:59;;;;;;;12.73;7.00;;;;;;;10.76;62.10;94555.66;5043897;28;20053;-89
2022/09/14 00:51:27;;;;;;;14.73;7.35;;;;;;;12.82;61.94;94885.63;5044167;28;20586;-89
2022/09/14 00:53:52;;;;;;;10.70;6.70;;;;;;;14.95;61.84;95212.84;5062405;28;20041;-89
2022/09/14 00:56:18;;;;;;;8.48;6.95;;;;;;;14.96;61.66;95214.41;5062240;28;20552;-89
2022/09/14 00:58:47;;;;;;;11.55;7.00;;;;;;;15.00;61.59;95213.53;5064930;28;20429;-89
2022/09/14 01:01:12;;;;;;;15.20;6.78;;;;;;;14.68;61.45;95162.94;5029816;28;20039;-88
2022/09/14 01:03:38;;;;;;;14.15;6.88;;;;;;;14.47;61.94;95140.44;5062081;28;20045;-88
2022/09/14 01:06:37;;;;;;;8.35;6.97;;;;;;;12.96;61.25;94903.22;5063440;28;20098;-88
2022/09/14 01:09:08;;;;;;;11.93;6.15;;;;;;;15.03;61.53;95212.13;5062735;28;20039;-88
2022/09/14 01:12:05;;;;;;;12.20;6.32;;;;;;;15.02;61.17;95216.69;5044579;28;20434;-88
2022/09/14 01:14:58;;;;;;;10.63;6.85;;;;;;;14.57;61.43;95149.03;5044838;28;20584;-88
2022/09/14 01:17:38;;;;;;;12.63;6.85;;;;;;;13.69;61.28;95013.44;5044119;28;20166;-88
2022/09/14 01:20:25;;;;;;;8.75;6.60;;;;;;;15.01;61.29;95217.00;5062279;28;20045;-89
2022/09/14 01:23:17;;;;;;;7.63;6.60;;;;;;;14.95;61.60;95218.97;5061826;28;20041;-88
2022/09/14 01:25:48;;;;;;;9.30;6.38;;;;;;;14.91;61.78;95214.53;5061749;28;20048;-88
2022/09/14 01:28:57;;;;;;;10.38;6.25;;;;;;;14.81;61.93;95209.41;5044878;28;20134;-88
2022/09/14 01:31:34;;;;;;;13.00;6.70;;;;;;;14.82;61.96;95205.63;5063273;28;20132;-88
2022/09/14 01:34:15;;;;;;;9.88;6.53;;;;;;;13.69;61.88;95040.88;5061008;28;20048;-88
2022/09/14 01:36:47;;;;;;;11.52;6.97;;;;;;;14.48;62.00;95153.50;5061682;28;20494;-88
2022/09/14 01:39:15;;;;;;;12.18;6.35;;;;;;;12.98;61.82;94938.31;5060240;28;20040;-89
2022/09/14 01:41:41;;;;;;;10.00;6.38;;;;;;;14.30;62.01;95157.81;5042888;28;20143;-89
2022/09/14 01:44:31;;;;;;;8.98;5.35;;;;;;;11.96;61.69;94798.31;5042290;28;20044;-89
2022/09/14 01:47:12;;;;;;;9.85;5.40;;;;;;;14.68;61.27;95206.44;5061176;28;20036;-88
2022/09/14 01:49:51;;;;;;;9.02;5.38;;;;;;;14.22;60.91;95144.38;5041871;28;20289;-88
2022/09/14 01:52:25;;;;;;;7.35;4.47;;;;;;;13.70;60.74;95068.34;5059364;28;20056;-88
2022/09/14 01:54:58;;;;;;;9.60;4.63;;;;;;;14.62;60.64;95218.31;5043681;28;20044;-88
2022/09/14 01:57:34;;;;;;;9.20;4.85;;;;;;;14.71;60.91;95220.31;5066969;28;20118;-88
2022/09/14 02:00:08;;;;;;;11.43;4.90;;;;;;;12.19;60.51;94831.16;5042817;28;20135;-88
2022/09/14 02:02:43;;;;;;;6.82;5.25;;;;;;;14.34;60.52;95165.25;5059233;28;20469;-88
2022/09/14 02:05:18;;;;;;;7.85;5.20;;;;;;;13.85;61.25;95097.38;5058963;28;20163;-88
2022/09/14 02:07:44;;;;;;;8.30;5.55;;;;;;;14.58;61.28;95206.66;5043275;28;20080;-88
2022/09/14 02:10:12;;;;;;;7.97;5.32;;;;;;;14.52;61.57;95212.38;5060797;28;20060;-88
2022/09/14 02:12:39;;;;;;;8.85;4.88;;;;;;;14.58;61.48;95222.66;5043142;28;20048;-88
2022/09/14 02:15:06;;;;;;;9.05;5.95;;;;;;;13.90;61.79;95118.59;5060390;28;20047;-89
2022/09/14 02:17:32;;;;;;;7.43;5.40;;;;;;;14.26;61.72;95180.06;5059604;28;20590;-88
2022/09/14 02:20:05;;;;;;;10.73;5.78;;;;;;;13.76;61.91;95107.91;5059291;28;20131;-88
2022/09/14 02:22:31;;;;;;;13.40;5.60;;;;;;;14.47;61.71;95199.16;5042613;28;20086;-88
2022/09/14 02:24:57;;;;;;;8.40;5.38;;;;;;;14.46;62.41;95216.25;5043512;28;20506;-88
2022/09/14 02:27:23;;;;;;;7.65;5.43;;;;;;;12.25;62.18;94861.88;5042184;28;20042;-87
2022/09/14 02:29:49;;;;;;;7.90;4.93;;;;;;;14.48;62.01;95211.41;5043277;28;20068;-87
2022/09/14 02:32:36;;;;;;;10.25;5.00;;;;;;;14.34;62.25;95189.25;5042858;28;20045;-88
2022/09/14 02:35:27;;;;;;;6.75;4.95;;;;;;;13.22;62.41;95027.91;5041879;28;20038;-88
2022/09/14 02:38:03;;;;;;;10.30;5.32;;;;;;;14.38;62.08;95217.72;5033802;28;20471;-88
2022/09/14 02:40:36;;;;;;;11.95;5.55;;;;;;;14.32;62.29;95212.75;5058814;28;20434;-88
2022/09/14 02:43:02;;;;;;;12.23;4.78;;;;;;;14.38;62.33;95219.56;5059935;28;20048;-88
2022/09/14 02:45:59;;;;;;;10.32;4.82;;;;;;;14.37;62.52;95215.31;5042245;28;20055;-88
2022/09/14 02:48:53;;;;;;;15.98;5.45;;;;;;;13.93;62.11;95146.53;5057993;28;20840;-88
2022/09/14 02:51:28;;;;;;;10.77;4.82;;;;;;;13.70;61.93;95106.44;5044196;28;20040;-88
2022/09/14 02:54:16;;;;;;;14.43;5.05;;;;;;;14.40;62.13;95218.22;5042501;28;20076;-88
2022/09/14 02:56:43;;;;;;;10.40;6.15;;;;;;;13.94;62.49;95174.78;5036064;28;20045;-88
2022/09/14 02:59:09;;;;;;;11.93;6.15;;;;;;;14.36;62.41;95219.88;5043002;28;20186;-88
2022/09/14 03:01:34;;;;;;;7.55;4.82;;;;;;;14.00;62.39;95176.28;5043577;28;20144;-88
2022/09/14 03:04:00;;;;;;;10.65;5.65;;;;;;;13.82;62.22;95137.94;5042204;28;20225;-88
2022/09/14 03:06:25;;;;;;;12.82;5.57;;;;;;;13.68;62.46;95143.25;5060701;28;20048;-88
2022/09/14 03:08:52;;;;;;;18.60;6.05;;;;;;;14.24;62.47;95223.03;5043197;28;20048;-88
2022/09/14 03:11:18;;;;;;;14.60;5.82;;;;;;;13.33;62.29;95074.59;5043507;28;20518;-88
2022/09/14 03:13:44;;;;;;;12.15;6.10;;;;;;;13.78;62.41;95148.41;5045287;28;20051;-88
2022/09/14 03:16:13;;;;;;;13.65;5.13;;;;;;;12.81;62.63;94999.31;5063283;28;20040;-88
2022/09/14 03:18:39;;;;;;;10.02;7.00;;;;;;;14.15;62.52;95216.78;5074912;28;20041;-88
2022/09/14 03:21:13;;;;;;;12.07;6.72;;;;;;;13.70;62.65;95142.94;5058115;28;20106;-88
2022/09/14 03:23:43;;;;;;;16.90;7.32;;;;;;;14.03;62.78;95183.69;5074295;28;20105;-88
2022/09/14 03:26:12;;;;;;;15.40;7.45;;;;;;;13.30;62.33;95070.63;5056161;28;20140;-88
2022/09/14 03:28:38;;;;;;;11.18;6.88;;;;;;;11.76;62.38;94851.75;5071789;28;20040;-89
2022/09/14 03:31:05;;;;;;;11.93;6.45;;;;;;;11.94;62.36;94893.47;5048915;28;20061;-89
2022/09/14 03:33:31;;;;;;;13.77;7.10;;;;;;;12.65;62.89;95017.38;5046988;28;20044;-89
2022/09/14 03:35:57;;;;;;;13.93;6.28;;;;;;;13.61;63.13;95148.16;5046144;28;20059;-89
2022/09/14 03:38:23;;;;;;;9.88;6.43;;;;;;;11.02;63.18;94752.41;5063161;28;20036;-89
2022/09/14 03:40:49;;;;;;;13.18;6.50;;;;;;;14.01;63.30;95215.97;5063550;28;20047;-88
2022/09/14 03:43:14;;;;;;;10.45;6.85;;;;;;;12.43;63.72;94979.94;5045752;28;20044;-89
2022/09/14 03:45:41;;;;;;;10.20;7.00;;;;;;;11.37;63.47;94809.50;5046478;28;20154;-89
2022/09/14 03:48:06;;;;;;;15.18;6.40;;;;;;;13.32;63.38;95152.91;5063996;28;20044;-88
2022/09/14 03:50:32;;;;;;;14.48;6.55;;;;;;;13.94;63.58;95214.78;5064904;28;20397;-89
2022/09/14 03:52:58;;;;;;;18.42;6.88;;;;;;;13.41;63.54;95154.63;5045932;28;20131;-89
2022/09/14 03:55:24;;;;;;;10.13;6.55;;;;;;;12.43;63.82;94981.81;5062564;28;20571;-89
2022/09/14 03:57:54;;;;;;;13.10;7.47;;;;;;;11.63;63.97;94880.88;5046021;28;20044;-89
2022/09/14 04:00:21;;;;;;;12.35;7.70;;;;;;;13.84;63.99;95237.84;5064070;28;20036;-89
2022/09/14 04:02:46;;;;;;;18.65;8.57;;;;;;;13.66;64.61;95222.69;5062354;28;20048;-89
2022/09/14 04:05:12;;;;;;;21.88;7.35;;;;;;;13.39;64.43;95179.97;5062985;28;20045;-89
2022/09/14 04:07:37;;;;;;;11.25;7.00;;;;;;;12.96;64.62;95097.53;5045250;28;20110;-89
2022/09/14 04:10:04;;;;;;;16.13;8.07;;;;;;;12.41;64.26;95014.00;5060937;28;20044;-89
2022/09/14 04:12:36;;;;;;;15.75;7.95;;;;;;;13.66;64.28;95201.38;5061087;28;20052;-89
2022/09/14 04:15:02;;;;;;;15.52;8.25;;;;;;;12.37;64.12;94995.16;5044619;28;20568;-87
2022/09/14 04:17:28;;;;;;;21.42;9.25;;;;;;;11.83;64.26;94949.69;5060919;28;20176;-87
2022/09/14 04:19:53;;;;;;;19.08;9.15;;;;;;;13.80;64.64;95222.75;5044777;28;20322;-89
2022/09/14 04:22:19;;;;;;;23.92;8.82;;;;;;;13.49;64.90;95182.47;5061954;28;20041;-88
2022/09/14 04:24:45;;;;;;;22.98;9.73;;;;;;;13.36;64.48;95153.91;5061499;28;20052;-89
2022/09/14 04:27:10;;;;;;;22.40;8.52;;;;;;;12.07;64.54;94952.28;5061493;28;20036;-88
2022/09/14 04:29:36;;;;;;;19.13;9.48;;;;;;;13.22;63.98;95121.91;5060647;28;20108;-88
2022/09/14 04:32:02;;;;;;;21.23;10.43;;;;;;;13.54;63.76;95171.72;5043380;28;20136;-89
2022/09/14 04:34:28;;;;;;;19.35;9.88;;;;;;;13.84;63.61;95218.41;5027691;28;20048;-88
2022/09/14 04:36:53;;;;;;;22.92;10.30;;;;;;;13.64;63.28;95192.88;5062182;28;20047;-89
2022/09/14 04:39:19;;;;;;;19.88;9.27;;;;;;;11.54;63.00;94878.06;5044074;28;20044;-89
2022/09/14 04:41:45;;;;;;;21.20;8.40;;;;;;;13.98;62.44;95237.09;5061598;28;20044;-88
2022/09/14 04:44:10;;;;;;;18.25;9.00;;;;;;;13.94;62.53;95233.44;5060333;28;20043;-88
2022/09/14 04:46:38;;;;;;;18.63;9.57;;;;;;;13.89;62.15;95232.44;5043474;28;20041;-89
2022/09/14 04:49:04;;;;;;;24.48;10.85;;;;;;;13.88;62.44;95243.41;5060883;28;20037;-89
2022/09/14 04:51:32;;;;;;;16.42;9.57;;;;;;;13.58;62.74;95214.59;5032231;28;20064;-88
2022/09/14 04:53:59;;;;;;;17.77;9.27;;;;;;;13.62;62.00;95203.03;5040222;28;20052;-89
2022/09/14 04:56:26;;;;;;;23.75;9.98;;;;;;;13.96;62.01;95241.94;5027654;28;20074;-88
2022/09/14 04:58:54;;;;;;;24.05;10.65;;;;;;;11.73;61.42;94899.34;5059844;28;20111;-88
2022/09/14 05:01:23;;;;;;;21.17;10.15;;;;;;;13.87;61.67;95250.63;5040916;28;20052;-89
2022/09/14 05:03:49;;;;;;;25.63;10.60;;;;;;;12.19;61.87;94998.63;5045181;28;20052;-88
2022/09/14 05:06:17;;;;;;;18.65;11.27;;;;;;;11.59;61.45;94912.53;5040326;28;20214;-89
2022/09/14 05:08:43;;;;;;;18.02;10.18;;;;;;;13.15;61.65;95150.78;5036158;28;20049;-89
2022/09/14 05:11:13;;;;;;;15.25;10.73;;;;;;;12.78;61.20;95077.03;5042127;28;20048;-89
2022/09/14 05:13:38;;;;;;;19.10;10.38;;;;;;;14.03;61.16;95245.03;5040178;28;20383;-87
2022/09/14 05:16:05;;;;;;;25.55;11.13;;;;;;;12.55;60.46;94996.25;5035285;28;20319;-88
2022/09/14 05:18:31;;;;;;;18.63;10.63;;;;;;;13.81;61.11;95195.78;5035910;28;20576;-88
2022/09/14 05:21:01;;;;;;;24.45;9.77;;;;;;;13.67;60.68;95159.50;5035004;28;20127;-86
2022/09/14 05:23:26;;;;;;;24.80;10.73;;;;;;;12.63;59.77;95003.56;5048036;28;20581;-88
2022/09/14 05:25:52;;;;;;;20.45;9.50;;;;;;;14.39;59.76;95270.00;5040041;28;20045;-88
2022/09/14 05:28:18;;;;;;;19.63;10.73;;;;;;;11.34;59.34;94775.59;5043031;28;20459;-88
2022/09/14 05:30:43;;;;;;;19.73;10.30;;;;;;;10.42;59.38;94630.16;5031863;28;20057;-88
2022/09/14 05:33:09;;;;;;;20.13;9.75;;;;;;;10.25;59.26;94644.94;5026561;28;20045;-88
2022/09/14 05:35:34;;;;;;;14.15;9.00;;;;;;;12.16;58.91;94906.16;5040382;28;20045;-89
2022/09/14 05:38:00;;;;;;;18.25;9.38;;;;;;;11.41;58.88;94765.41;5016456;28;20040;-88
2022/09/14 05:40:26;;;;;;;17.55;10.70;;;;;;;10.53;59.70;94645.94;5025784;28;20148;-87
2022/09/14 05:42:51;;;;;;;19.63;11.20;;;;;;;10.36;59.22;94631.28;5023953;28;20044;-87
2022/09/14 05:45:17;;;;;;;19.63;11.07;;;;;;;13.25;59.44;95048.63;5047119;28;20178;-88
2022/09/14 05:47:42;;;;;;;16.48;9.95;;;;;;;14.55;59.68;95244.63;5037724;28;20134;-88
2022/09/14 05:50:09;;;;;;;21.20;10.93;;;;;;;13.03;59.59;95009.31;5043433;28;20106;-89
2022/09/14 05:52:36;;;;;;;22.17;10.93;;;;;;;13.60;59.41;95124.47;5030141;28;20537;-88
2022/09/14 05:55:02;;;;;;;19.33;11.60;;;;;;;14.69;59.31;95265.97;5044243;28;20136;-87
2022/09/14 05:57:28;;;;;;;22.88;10.45;;;;;;;11.72;59.12;94802.91;5025320;28;20141;-88
2022/09/14 05:59:54;;;;;;;17.60;10.52;;;;;;;11.20;59.16;94711.81;5029638;28;20514;-89
2022/09/14 06:02:19;;;;;;;17.45;10.77;;;;;;;13.11;59.02;95033.41;5053059;28;20482;-88
2022/09/14 06:04:45;;;;;;;21.35;13.00;;;;;;;14.95;59.25;95306.31;5031557;28;20893;-88
2022/09/14 06:07:11;;;;;;;19.90;11.35;;;;;;;10.87;58.98;94659.75;5032224;28;20116;-88
2022/09/14 06:09:37;;;;;;;21.42;11.25;;;;;;;10.80;59.36;94614.25;5029807;28;20045;-88
2022/09/14 06:12:03;;;;;;;17.98;11.00;;;;;;;11.58;58.89;94746.28;5024940;28;20047;-89
2022/09/14 06:14:28;;;;;;;16.95;10.52;;;;;;;14.75;58.92;95245.28;5041885;28;20036;-89
2022/09/14 06:16:59;;;;;;;12.27;9.13;;;;;;;11.19;58.22;94635.94;5025966;28;20132;-91
2022/09/14 06:19:28;;;;;;;17.65;10.13;;;;;;;14.45;58.14;95163.97;5041313;28;20039;-92
2022/09/14 06:21:55;;;;;;;16.40;8.98;;;;;;;14.65;58.36;95216.91;5050040;28;20705;-90
2022/09/14 06:24:20;;;;;;;12.50;7.10;;;;;;;12.87;57.73;94936.13;5029974;28;20155;-91
2022/09/14 06:26:58;;;;;;;8.02;6.07;;;;;;;12.56;57.24;94882.66;5036092;28;20120;-92
2022/09/14 06:29:51;;;;;;;11.27;7.60;;;;;;;13.20;57.29;94982.91;5043963;28;20037;-91
2022/09/14 06:32:43;;;;;;;10.52;6.85;;;;;;;11.96;56.81;94768.28;5021821;28;20042;-91
2022/09/14 06:38:05;;;;;;;10.23;7.63;;;;;;;11.15;56.35;94596.97;5004932;28;20041;-91
2022/09/14 06:40:38;;;;;;;14.25;8.07;;;;;;;15.53;57.05;95273.56;4994134;28;20057;-92
2022/09/14 06:43:24;;;;;;;12.52;8.30;;;;;;;15.22;57.26;95220.78;5010307;28;20038;-91
2022/09/14 06:46:10;;;;;;;18.60;9.35;;;;;;;13.80;57.05;95020.97;5018298;28;20056;-91
2022/09/14 06:48:51;;;;;;;14.43;8.35;;;;;;;13.34;57.05;94919.84;5027636;28;20058;-91
2022/09/14 06:51:24;;;;;;;15.90;8.55;;;;;;;15.54;57.35;95249.25;5022058;28;20927;-91
2022/09/14 06:53:52;;;;;;;12.15;8.57;;;;;;;11.92;56.93;94656.47;5011755;28;20044;-90
2022/09/14 06:56:19;;;;;;;10.25;8.48;;;;;;;15.42;57.09;95233.69;5007276;28;20041;-91
2022/09/14 06:58:45;;;;;;;12.05;7.63;;;;;;;12.88;57.33;94853.34;5015757;28;20072;-90
2022/09/14 07:01:15;;;;;;;13.20;8.43;;;;;;;13.19;57.45;94861.53;5015506;28;20061;-90
2022/09/14 07:03:42;;;;;;;14.95;7.68;;;;;;;10.88;56.07;94523.41;5016343;28;20766;-89
2022/09/14 07:06:23;;;;;;;15.50;7.85;;;;;;;14.83;56.45;95188.53;5012359;28;20163;-90
2022/09/14 07:08:50;;;;;;;12.65;7.40;;;;;;;14.41;57.23;95126.44;5018047;28;20053;-90
2022/09/14 07:11:17;;;;;;;13.55;8.55;;;;;;;13.31;56.62;94919.63;5014904;28;20128;-90
2022/09/14 07:13:44;;;;;;;19.63;8.02;;;;;;;11.69;56.32;94628.16;5017303;28;20037;-91
2022/09/14 07:16:28;;;;;;;19.08;7.85;;;;;;;11.37;56.16;94628.97;5023458;28;20041;-91
2022/09/14 07:18:56;;;;;;;10.45;8.27;;;;;;;14.11;55.95;95013.09;5023249;28;20042;-91
2022/09/14 07:21:42;;;;;;;15.00;7.05;;;;;;;12.63;55.39;94748.16;5023793;28;20062;-92
2022/09/14 07:24:13;;;;;;;13.38;7.53;;;;;;;14.38;55.86;95019.47;5027931;28;20072;-92
2022/09/14 07:26:46;;;;;;;22.02;8.25;;;;;;;12.18;55.37;94671.94;5023538;28;20079;-92
2022/09/14 07:29:28;;;;;;;32.63;8.88;;;;;;;12.23;55.30;94662.00;5020106;28;20709;-93
2022/09/14 07:35:15;;;;;;;14.57;9.10;;;;;;;13.19;54.96;94802.97;5037234;28;20056;-92
2022/09/14 07:37:48;;;;;;;14.82;7.88;;;;;;;15.78;55.49;95204.28;5037096;28;20044;-93
2022/09/14 07:40:49;;;;;;;16.25;8.15;;;;;;;16.33;55.00;95265.47;5052691;28;20113;-91
2022/09/14 07:43:18;;;;;;;17.50;8.90;;;;;;;12.34;55.32;94628.81;5052234;28;20125;-91
2022/09/14 07:45:46;;;;;;;16.23;9.65;;;;;;;12.07;55.33;94588.94;5049025;28;20129;-92
2022/09/14 07:48:11;;;;;;;20.00;9.07;;;;;;;16.20;55.57;95288.56;5045835;28;20036;-91
2022/09/14 07:51:14;;;;;;;16.48;9.57;;;;;;;14.33;55.66;94979.59;5039776;28;20186;-92
2022/09/14 07:53:41;;;;;;;19.73;8.70;;;;;;;16.27;55.43;95258.69;5053336;28;20338;-91
2022/09/14 07:56:08;;;;;;;22.92;8.48;;;;;;;16.51;54.99;95263.69;5036469;28;20972;-93
2022/09/14 07:58:35;;;;;;;17.90;9.20;;;;;;;12.09;54.93;94586.00;5038789;28;20056;-89
2022/09/14 08:01:07;;;;;;;21.85;9.95;;;;;;;14.09;54.65;94902.50;5052116;28;20048;-91
2022/09/14 08:03:37;;;;;;;21.65;9.02;;;;;;;13.28;54.61;94720.47;5042577;28;20044;-92
2022/09/14 08:06:15;;;;;;;23.10;9.18;;;;;;;15.13;54.62;95003.56;5029900;28;20033;-90
2022/09/14 08:08:43;;;;;;;17.17;8.27;;;;;;;16.93;54.63;95270.34;5037828;28;20043;-91
2022/09/14 08:11:21;;;;;;;16.60;7.72;;;;;;;15.53;54.26;95027.66;5039484;28;20548;-90
2022/09/14 08:13:52;;;;;;;17.05;8.38;;;;;;;15.31;54.41;95018.59;5056180;28;20043;-92
2022/09/14 08:16:19;;;;;;;14.20;7.97;;;;;;;15.70;54.10;95043.81;5041575;28;20051;-92
2022/09/14 08:18:46;;;;;;;10.98;7.40;;;;;;;15.69;54.46;95043.03;5042155;28;20064;-90
2022/09/14 08:21:27;;;;;;;16.98;7.25;;;;;;;12.95;54.34;94638.13;5056974;28;20039;-91
2022/09/14 08:23:53;;;;;;;16.70;7.35;;;;;;;14.51;54.32;94850.56;5047484;28;20099;-90
2022/09/14 08:26:21;;;;;;;24.45;7.53;;;;;;;15.28;54.35;94911.56;5046295;28;20140;-91
2022/09/14 08:28:49;;;;;;;13.55;7.22;;;;;;;13.37;54.95;94612.94;5040290;28;20044;-92
2022/09/14 08:31:23;;;;;;;18.02;7.10;;;;;;;17.06;54.82;95181.00;5044135;28;20109;-92
2022/09/14 08:34:46;;;;;;;16.75;7.72;;;;;;;13.55;54.32;94680.44;5045842;28;20041;-92
2022/09/14 08:37:01;;;;;;;13.95;7.30;;;;;;;16.14;54.00;95026.81;5047522;28;20041;-93
2022/09/14 08:40:14;;;;;;;15.93;7.33;;;;;;;15.28;53.98;94890.97;5053058;28;20057;-93
2022/09/14 08:43:13;;;;;;;21.23;8.13;;;;;;;13.52;53.21;94614.41;5030889;28;20055;-93
2022/09/14 08:45:42;;;;;;;13.60;7.97;;;;;;;17.72;53.38;95252.16;5033990;23;20190;-79
2022/09/14 08:48:21;;;;;;;9.32;6.68;;;;;;;17.80;53.18;95249.78;4945211;28;20100;-79
2022/09/14 08:50:52;;;;;;;12.60;6.85;;;;;;;17.51;53.50;95210.97;4944378;28;20120;-80
2022/09/14 08:53:20;;;;;;;17.02;6.88;;;;;;;17.38;54.32;95177.09;4948745;28;20050;-79
2022/09/14 08:56:16;;;;;;;13.90;5.93;;;;;;;17.55;53.57;95179.72;4963300;28;20054;-79
2022/09/14 08:58:50;;;;;;;13.15;6.82;;;;;;;17.90;52.70;95234.16;4974298;28;20050;-79
2022/09/14 09:01:39;;;;;;;15.38;7.22;;;;;;;17.58;52.65;95183.69;4949963;28;20476;-83
2022/09/14 09:04:19;;;;;;;17.90;7.60;;;;;;;18.00;52.97;95241.09;4943089;28;20047;-79
2022/09/14 09:06:52;;;;;;;14.70;7.30;;;;;;;17.56;52.86;95149.13;4952019;28;20055;-79
2022/09/14 09:09:36;;;;;;;17.95;6.93;;;;;;;18.08;52.37;95230.34;4947967;28;20156;-80
2022/09/14 09:12:04;;;;;;;18.48;6.90;;;;;;;16.88;52.42;95046.25;4963878;28;20157;-80
2022/09/14 09:14:40;;;;;;;12.20;7.07;;;;;;;17.99;51.92;95200.06;4946797;28;20902;-80
2022/09/14 09:17:32;;;;;;;11.23;6.72;;;;;;;18.11;52.08;95204.75;4951716;28;20077;-80
2022/09/14 09:20:04;;;;;;;20.70;6.88;;;;;;;17.92;52.40;95164.09;4952544;28;20055;-80
2022/09/14 09:22:53;;;;;;;13.80;6.95;;;;;;;17.95;52.06;95156.19;4962545;28;20108;-80
2022/09/14 09:25:27;;;;;;;15.60;6.50;;;;;;;18.29;51.30;95195.56;4938567;28;20140;-80
2022/09/14 09:28:01;;;;;;;14.80;6.90;;;;;;;18.20;51.89;95175.22;4952451;28;20513;-81
2022/09/14 09:30:28;;;;;;;14.02;6.70;;;;;;;17.84;51.75;95103.22;4935263;28;20042;-80
2022/09/14 09:32:54;;;;;;;17.02;7.00;;;;;;;18.12;51.83;95131.97;4945509;28;20046;-87
2022/09/14 09:35:23;;;;;;;19.63;7.90;;;;;;;18.70;51.16;95218.31;4949434;28;20047;-81
2022/09/14 09:37:49;;;;;;;10.40;5.93;;;;;;;17.69;50.93;95038.25;4937892;28;20148;-82
2022/09/14 09:40:18;;;;;;;26.35;8.20;;;;;;;17.92;51.51;95078.25;4939490;28;20156;-83
2022/09/14 09:43:07;;;;;;;10.70;5.95;;;;;;;18.86;50.41;95211.28;4940939;28;20051;-81
2022/09/14 09:45:45;;;;;;;12.43;6.63;;;;;;;18.31;50.35;95117.38;4933860;28;20058;-83
2022/09/14 09:48:13;;;;;;;14.50;7.05;;;;;;;18.56;49.96;95146.03;4937451;28;20041;-81
2022/09/14 09:51:03;;;;;;;14.43;6.07;;;;;;;19.18;50.40;95201.75;4940513;28;20142;-82
2022/09/14 09:53:31;;;;;;;18.75;7.25;;;;;;;19.32;50.50;95198.81;4971073;28;20043;-80
2022/09/14 09:55:57;;;;;;;16.77;7.70;;;;;;;19.47;49.67;95141.75;4933876;28;20460;-82
2022/09/14 09:58:26;;;;;;;11.32;7.13;;;;;;;20.85;47.51;95202.19;4937100;28;20034;-82
2022/09/14 10:01:06;;;;;;;17.08;7.55;;;;;;;21.63;44.08;95147.88;4936738;28;20046;-82
2022/09/14 10:03:38;;;;;;;20.35;7.45;;;;;;;23.37;40.97;95190.81;4939052;28;20050;-82
2022/09/14 10:06:09;;;;;;;15.32;6.57;;;;;;;23.90;39.11;95135.03;4955084;28;20046;-83
2022/09/14 10:08:46;;;;;;;13.88;5.85;;;;;;;25.50;36.79;95179.06;4940476;28;20059;-81
2022/09/14 10:11:31;;;;;;;16.15;5.25;;;;;;;25.50;35.54;95134.84;4971294;28;20050;-80
2022/09/14 10:13:58;;;;;;;11.73;4.82;;;;;;;26.40;34.18;95168.09;4935399;28;20047;-81
2022/09/14 10:16:28;;;;;;;15.02;6.13;;;;;;;27.42;32.25;95161.88;4933871;28;20043;-82
2022/09/14 10:18:54;;;;;;;13.95;4.93;;;;;;;27.72;31.57;95153.47;4942766;28;20072;-82
2022/09/14 10:21:22;;;;;;;11.27;4.82;;;;;;;28.63;30.40;95157.59;4959851;28;20047;-82
2022/09/14 10:24:14;;;;;;;14.68;4.65;;;;;;;28.98;29.18;95115.91;4957075;28;20094;-81
2022/09/14 10:26:40;;;;;;;16.02;4.95;;;;;;;28.93;28.93;95034.38;4927225;28;20050;-81
2022/09/14 10:29:34;;;;;;;11.27;4.80;;;;;;;29.61;28.21;95068.47;4945976;28;20113;-81
2022/09/14 10:32:23;;;;;;;13.23;4.68;;;;;;;30.49;27.85;95153.94;4940056;28;20042;-81
2022/09/14 10:34:50;;;;;;;9.43;4.75;;;;;;;30.18;28.31;95120.94;4935658;28;20073;-82
2022/09/14 10:37:59;;;;;;;8.05;3.90;;;;;;;29.92;27.58;95111.28;4941226;28;21144;-84
2022/09/14 10:40:49;;;;;;;12.73;4.53;;;;;;;30.27;27.48;95104.84;4935989;28;20047;-81
2022/09/14 10:43:32;;;;;;;13.25;4.32;;;;;;;30.09;28.18;95035.03;4943732;28;20101;-83
2022/09/14 10:46:03;;;;;;;18.23;4.43;;;;;;;30.24;27.12;95045.47;4937639;28;20537;-83
2022/09/14 10:48:31;;;;;;;;;;;;;;;31.08;26.94;95140.22;4944029;28;20809;-82
2022/09/14 10:51:28;;;;;;;11.02;4.68;;;;;;;31.10;27.39;95137.84;4958055;28;19929;-83
2022/09/14 10:54:25;;;;;;;11.13;3.92;;;;;;;31.27;26.77;95128.69;4979444;28;20047;-83
2022/09/14 10:57:19;;;;;;;5.22;2.92;;;;;;;31.14;25.45;95128.41;4955093;28;20330;-82
2022/09/14 10:59:54;;;;;;;16.15;4.10;;;;;;;31.04;25.69;95072.53;4977016;28;20050;-83
2022/09/14 11:02:31;;;;;;;9.63;3.30;;;;;;;31.51;25.47;95126.84;4944144;28;20047;-83
2022/09/14 11:05:13;;;;;;;6.30;3.08;;;;;;;31.19;25.45;95117.03;4942979;28;20069;-85
2022/09/14 11:07:47;;;;;;;9.05;2.88;;;;;;;31.59;25.84;95109.09;4976139;28;20126;-82
2022/09/14 11:10:34;;;;;;;13.60;3.95;;;;;;;31.43;25.09;95110.47;4945618;28;20539;-82
2022/09/14 11:13:24;;;;;;;9.40;3.80;;;;;;;31.45;25.10;95110.84;4957660;28;20633;-81
2022/09/14 11:15:56;;;;;;;8.65;2.97;;;;;;;31.65;24.21;95113.00;4944232;28;20930;-82
2022/09/14 11:18:37;;;;;;;6.18;2.65;;;;;;;31.01;25.00;95099.94;4958750;28;20819;-82
2022/09/14 11:21:26;;;;;;;6.75;2.83;;;;;;;31.14;24.10;95081.84;4955562;28;20218;-83
2022/09/14 11:24:00;;;;;;;11.63;3.00;;;;;;;30.86;24.87;95085.63;4945865;28;20724;-82
2022/09/14 11:26:53;;;;;;;6.13;2.70;;;;;;;31.22;23.71;95109.94;4949824;28;20105;-81
2022/09/14 11:29:25;;;;;;;3.80;1.88;;;;;;;30.26;23.67;95110.72;4939416;28;20055;-82
2022/09/14 11:32:06;;;;;;;1.83;1.48;;;;;;;30.37;23.44;95110.63;4952529;28;20074;-81
2022/09/14 11:34:53;;;;;;;;;;;;;;;30.07;23.43;95097.53;4953104;28;20570;-81
2022/09/14 11:37:25;;;;;;;4.22;1.77;;;;;;;29.68;23.05;95079.38;4946413;28;20684;-81
2022/09/14 11:40:01;;;;;;;3.75;1.40;;;;;;;29.53;23.17;95102.47;4949328;28;20520;-81
2022/09/14 11:42:36;;;;;;;3.10;1.55;;;;;;;29.27;23.07;95046.38;4951533;28;20555;-81
2022/09/14 11:45:06;;;;;;;2.58;1.25;;;;;;;29.78;22.79;95048.47;4932830;28;20062;-81
2022/09/14 11:47:47;;;;;;;1.83;1.38;;;;;;;30.14;21.95;95037.34;4955681;28;20137;-83
2022/09/14 11:50:24;;;;;;;3.45;1.48;;;;;;;30.50;22.06;95074.22;4948608;28;20042;-83
2022/09/14 11:53:08;;;;;;;4.00;1.70;;;;;;;30.22;22.32;95083.38;4948548;28;20062;-81
2022/09/14 11:55:34;;;;;;;2.75;1.60;;;;;;;30.36;21.82;95052.44;4952848;28;21206;-81
2022/09/14 11:58:03;;;;;;;5.00;1.70;;;;;;;30.35;22.14;95034.44;4948510;28;20042;-81
2022/09/14 12:00:45;;;;;;;8.35;2.22;;;;;;;29.64;23.05;94993.91;4950220;28;20047;-81